sensor_id;sensor_type;location;lat;lon;timestamp;pressure;altitude;pressure_sealevel;temperature;humidity
45345;BME280;31078;48.304;11.896;2023-01-28T00:00:09;96622.72;;;-0.99;90.35
45345;BME280;31078;48.304;11.896;2023-01-28T00:02:36;96621.88;;;-0.99;90.58
45345;BME280;31078;48.304;11.896;2023-01-28T00:05:05;96626.09;;;-1.03;90.70
45345;BME280;31078;48.304;11.896;2023-01-28T00:07:32;96633.41;;;-0.99;90.87
45345;BME280;31078;48.304;11.896;2023-01-28T00:09:58;96629.09;;;-1.00;91.02
45345;BME280;31078;48.304;11.896;2023-01-28T00:12:25;96627.97;;;-1.04;91.27
45345;BME280;31078;48.304;11.896;2023-01-28T00:14:51;96632.81;;;-1.01;91.36
45345;BME280;31078;48.304;11.896;2023-01-28T00:17:17;96625.97;;;-0.97;91.41
45345;BME280;31078;48.304;11.896;2023-01-28T00:19:44;96627.56;;;-0.96;91.32
45345;BME280;31078;48.304;11.896;2023-01-28T00:22:12;96622.22;;;-0.96;91.57
45345;BME280;31078;48.304;11.896;2023-01-28T00:24:39;96630.00;;;-0.94;91.53
45345;BME280;31078;48.304;11.896;2023-01-28T00:27:05;96624.19;;;-0.91;91.57
45345;BME280;31078;48.304;11.896;2023-01-28T00:29:32;96628.16;;;-0.94;91.67
45345;BME280;31078;48.304;11.896;2023-01-28T00:31:58;96623.38;;;-0.92;91.54
45345;BME280;31078;48.304;11.896;2023-01-28T00:34:25;96623.38;;;-0.92;91.42
45345;BME280;31078;48.304;11.896;2023-01-28T00:36:51;96617.69;;;-0.95;91.42
45345;BME280;31078;48.304;11.896;2023-01-28T00:39:23;96629.19;;;-0.95;91.55
45345;BME280;31078;48.304;11.896;2023-01-28T00:41:50;96621.75;;;-0.93;91.72
45345;BME280;31078;48.304;11.896;2023-01-28T00:44:18;96621.53;;;-0.91;91.75
45345;BME280;31078;48.304;11.896;2023-01-28T00:46:45;96618.84;;;-0.91;91.69
45345;BME280;31078;48.304;11.896;2023-01-28T00:49:11;96608.63;;;-0.94;91.83
45345;BME280;31078;48.304;11.896;2023-01-28T00:51:38;96611.06;;;-0.93;92.19
45345;BME280;31078;48.304;11.896;2023-01-28T00:54:05;96616.88;;;-0.96;92.41
45345;BME280;31078;48.304;11.896;2023-01-28T00:56:33;96623.75;;;-1.00;92.66
45345;BME280;31078;48.304;11.896;2023-01-28T00:59:01;96621.88;;;-0.99;92.79
45345;BME280;31078;48.304;11.896;2023-01-28T01:01:27;96625.97;;;-0.97;92.68
45345;BME280;31078;48.304;11.896;2023-01-28T01:03:54;96624.94;;;-1.08;92.69
45345;BME280;31078;48.304;11.896;2023-01-28T01:06:27;96620.16;;;-1.06;92.97
45345;BME280;31078;48.304;11.896;2023-01-28T01:08:54;96626.41;;;-1.00;92.73
45345;BME280;31078;48.304;11.896;2023-01-28T01:11:20;96621.06;;;-1.00;92.63
45345;BME280;31078;48.304;11.896;2023-01-28T01:13:52;96625.28;;;-1.04;92.55
45345;BME280;31078;48.304;11.896;2023-01-28T01:16:22;96632.41;;;-1.10;92.75
45345;BME280;31078;48.304;11.896;2023-01-28T01:18:50;96617.63;;;-1.12;92.82
45345;BME280;31078;48.304;11.896;2023-01-28T01:21:18;96623.56;;;-1.10;92.75
45345;BME280;31078;48.304;11.896;2023-01-28T01:23:45;96624.28;;;-1.15;92.82
45345;BME280;31078;48.304;11.896;2023-01-28T01:26:13;96629.94;;;-1.11;92.75
45345;BME280;31078;48.304;11.896;2023-01-28T01:28:40;96632.53;;;-1.16;92.81
45345;BME280;31078;48.304;11.896;2023-01-28T01:31:11;96633.13;;;-1.14;92.97
45345;BME280;31078;48.304;11.896;2023-01-28T01:33:38;96632.06;;;-1.13;92.83
45345;BME280;31078;48.304;11.896;2023-01-28T01:36:05;96632.06;;;-1.13;92.87
45345;BME280;31078;48.304;11.896;2023-01-28T01:38:32;96636.25;;;-1.17;92.93
45345;BME280;31078;48.304;11.896;2023-01-28T01:41:00;96630.91;;;-1.17;93.06
45345;BME280;31078;48.304;11.896;2023-01-28T01:43:48;96635.69;;;-1.19;93.17
45345;BME280;31078;48.304;11.896;2023-01-28T01:46:20;96641.59;;;-1.17;93.38
45345;BME280;31078;48.304;11.896;2023-01-28T01:48:48;96641.59;;;-1.17;93.34
45345;BME280;31078;48.304;11.896;2023-01-28T01:51:18;96646.13;;;-1.18;93.20
45345;BME280;31078;48.304;11.896;2023-01-28T01:53:50;96646.94;;;-1.17;93.33
45345;BME280;31078;48.304;11.896;2023-01-28T01:56:20;96648.56;;;-1.16;93.47
45345;BME280;31078;48.304;11.896;2023-01-28T01:58:49;96645.88;;;-1.16;93.49
45345;BME280;31078;48.304;11.896;2023-01-28T02:01:21;96645.06;;;-1.17;93.51
45345;BME280;31078;48.304;11.896;2023-01-28T02:03:54;96649.84;;;-1.19;93.50
45345;BME280;31078;48.304;11.896;2023-01-28T02:06:23;96644.97;;;-1.22;93.29
45345;BME280;31078;48.304;11.896;2023-01-28T02:08:53;96650.66;;;-1.18;93.26
45345;BME280;31078;48.304;11.896;2023-01-28T02:11:20;96646.59;;;-1.21;93.27
45345;BME280;31078;48.304;11.896;2023-01-28T02:13:49;96656.56;;;-1.16;92.94
45345;BME280;31078;48.304;11.896;2023-01-28T02:16:20;96661.59;;;-1.20;92.97
45345;BME280;31078;48.304;11.896;2023-01-28T02:18:47;96656.00;;;-1.18;92.91
45345;BME280;31078;48.304;11.896;2023-01-28T02:21:36;96651.47;;;-1.18;92.93
45345;BME280;31078;48.304;11.896;2023-01-28T02:24:23;96655.66;;;-1.22;93.04
45345;BME280;31078;48.304;11.896;2023-01-28T02:27:02;96653.34;;;-1.18;92.78
45345;BME280;31078;48.304;11.896;2023-01-28T02:29:36;96657.63;;;-1.17;92.87
45345;BME280;31078;48.304;11.896;2023-01-28T02:32:13;96660.84;;;-1.15;92.87
45345;BME280;31078;48.304;11.896;2023-01-28T02:34:44;96659.72;;;-1.19;92.94
45345;BME280;31078;48.304;11.896;2023-01-28T02:37:14;96675.16;;;-1.21;93.00
45345;BME280;31078;48.304;11.896;2023-01-28T02:39:45;96667.50;;;-1.18;93.17
45345;BME280;31078;48.304;11.896;2023-01-28T02:42:17;96666.44;;;-1.17;92.99
45345;BME280;31078;48.304;11.896;2023-01-28T02:44:46;96661.34;;;-1.18;93.03
45345;BME280;31078;48.304;11.896;2023-01-28T02:47:13;96671.78;;;-1.17;93.06
45345;BME280;31078;48.304;11.896;2023-01-28T02:50:00;96669.13;;;-1.17;92.93
45345;BME280;31078;48.304;11.896;2023-01-28T02:52:36;96672.50;;;-1.21;92.86
45345;BME280;31078;48.304;11.896;2023-01-28T02:55:30;96672.38;;;-1.26;92.81
45345;BME280;31078;48.304;11.896;2023-01-28T02:58:05;96667.63;;;-1.24;92.92
45345;BME280;31078;48.304;11.896;2023-01-28T03:00:43;96674.13;;;-1.20;92.83
45345;BME280;31078;48.304;11.896;2023-01-28T03:03:16;96673.09;;;-1.19;92.51
45345;BME280;31078;48.304;11.896;2023-01-28T03:05:49;96678.19;;;-1.18;92.70
45345;BME280;31078;48.304;11.896;2023-01-28T03:08:33;96683.28;;;-1.16;92.52
45345;BME280;31078;48.304;11.896;2023-01-28T03:11:18;96681.09;;;-1.19;92.65
45345;BME280;31078;48.304;11.896;2023-01-28T03:14:03;96679.47;;;-1.20;92.67
45345;BME280;31078;48.304;11.896;2023-01-28T03:16:50;96681.44;;;-1.16;92.45
45345;BME280;31078;48.304;11.896;2023-01-28T03:19:34;96682.72;;;-1.18;92.58
45345;BME280;31078;48.304;11.896;2023-01-28T03:22:18;96686.44;;;-1.19;92.55
45345;BME280;31078;48.304;11.896;2023-01-28T03:25:03;96685.97;;;-1.16;92.50
45345;BME280;31078;48.304;11.896;2023-01-28T03:27:52;96683.88;;;-1.14;92.32
45345;BME280;31078;48.304;11.896;2023-01-28T03:30:41;96690.38;;;-1.10;92.25
45345;BME280;31078;48.304;11.896;2023-01-28T03:33:28;96675.88;;;-1.14;92.48
45345;BME280;31078;48.304;11.896;2023-01-28T03:36:13;96684.69;;;-1.14;92.56
45345;BME280;31078;48.304;11.896;2023-01-28T03:38:58;96682.75;;;-1.30;92.45
45345;BME280;31078;48.304;11.896;2023-01-28T03:41:25;96677.50;;;-1.37;92.75
45345;BME280;31078;48.304;11.896;2023-01-28T03:43:52;96682.50;;;-1.28;93.00
45345;BME280;31078;48.304;11.896;2023-01-28T03:46:19;96687.84;;;-1.28;92.87
45345;BME280;31078;48.304;11.896;2023-01-28T03:48:47;96694.94;;;-1.34;92.87
45345;BME280;31078;48.304;11.896;2023-01-28T03:51:13;96696.31;;;-1.32;92.64
45345;BME280;31078;48.304;11.896;2023-01-28T03:53:42;96687.38;;;-1.37;92.37
45345;BME280;31078;48.304;11.896;2023-01-28T03:56:08;96684.38;;;-1.41;92.49
45345;BME280;31078;48.304;11.896;2023-01-28T03:58:42;96686.47;;;-1.43;92.54
45345;BME280;31078;48.304;11.896;2023-01-28T04:01:17;96685.91;;;-1.45;92.61
45345;BME280;31078;48.304;11.896;2023-01-28T04:03:44;96692.75;;;-1.49;92.88
45345;BME280;31078;48.304;11.896;2023-01-28T04:06:12;96698.44;;;-1.45;92.78
45345;BME280;31078;48.304;11.896;2023-01-28T04:08:39;96702.13;;;-1.46;92.61
45345;BME280;31078;48.304;11.896;2023-01-28T04:11:10;96702.97;;;-1.46;92.77
45345;BME280;31078;48.304;11.896;2023-01-28T04:13:40;96699.81;;;-1.43;92.56
45345;BME280;31078;48.304;11.896;2023-01-28T04:16:07;96699.38;;;-1.40;92.39
45345;BME280;31078;48.304;11.896;2023-01-28T04:18:34;96704.81;;;-1.35;92.48
45345;BME280;31078;48.304;11.896;2023-01-28T04:21:00;96697.97;;;-1.30;92.15
45345;BME280;31078;48.304;11.896;2023-01-28T04:23:28;96706.56;;;-1.28;92.13
45345;BME280;31078;48.304;11.896;2023-01-28T04:25:55;96705.16;;;-1.31;92.14
45345;BME280;31078;48.304;11.896;2023-01-28T04:28:22;96709.22;;;-1.28;92.16
45345;BME280;31078;48.304;11.896;2023-01-28T04:30:48;96713.41;;;-1.33;92.08
45345;BME280;31078;48.304;11.896;2023-01-28T04:33:15;96707.59;;;-1.29;92.04
45345;BME280;31078;48.304;11.896;2023-01-28T04:35:41;96709.22;;;-1.28;91.82
45345;BME280;31078;48.304;11.896;2023-01-28T04:38:08;96712.94;;;-1.29;92.03
45345;BME280;31078;48.304;11.896;2023-01-28T04:40:36;96713.75;;;-1.29;92.00
45345;BME280;31078;48.304;11.896;2023-01-28T04:43:02;96716.44;;;-1.29;92.07
45345;BME280;31078;48.304;11.896;2023-01-28T04:45:29;96714.00;;;-1.30;91.79
45345;BME280;31078;48.304;11.896;2023-01-28T04:47:56;96718.50;;;-1.31;91.94
45345;BME280;31078;48.304;11.896;2023-01-28T04:50:22;96721.31;;;-1.38;91.97
45345;BME280;31078;48.304;11.896;2023-01-28T04:52:49;96722.47;;;-1.34;91.92
45345;BME280;31078;48.304;11.896;2023-01-28T04:55:15;96727.56;;;-1.32;92.09
45345;BME280;31078;48.304;11.896;2023-01-28T04:57:45;96727.81;;;-1.34;92.06
45345;BME280;31078;48.304;11.896;2023-01-28T05:00:12;96733.72;;;-1.32;92.22
45345;BME280;31078;48.304;11.896;2023-01-28T05:02:39;96725.25;;;-1.28;92.32
45345;BME280;31078;48.304;11.896;2023-01-28T05:05:06;96728.50;;;-1.26;92.43
45345;BME280;31078;48.304;11.896;2023-01-28T05:07:33;96732.78;;;-1.25;92.59
45345;BME280;31078;48.304;11.896;2023-01-28T05:09:59;96733.84;;;-1.26;92.73
45345;BME280;31078;48.304;11.896;2023-01-28T05:12:26;96729.09;;;-1.24;92.72
45345;BME280;31078;48.304;11.896;2023-01-28T05:14:53;96729.09;;;-1.24;92.89
45345;BME280;31078;48.304;11.896;2023-01-28T05:17:20;96733.13;;;-1.22;93.00
45345;BME280;31078;48.304;11.896;2023-01-28T05:19:46;96740.69;;;-1.19;92.78
45345;BME280;31078;48.304;11.896;2023-01-28T05:22:13;96743.13;;;-1.17;92.77
45345;BME280;31078;48.304;11.896;2023-01-28T05:24:39;96741.50;;;-1.18;92.88
45345;BME280;31078;48.304;11.896;2023-01-28T05:27:06;96750.09;;;-1.16;92.88
45345;BME280;31078;48.304;11.896;2023-01-28T05:29:33;96749.53;;;-1.18;92.91
45345;BME280;31078;48.304;11.896;2023-01-28T05:32:00;96747.91;;;-1.19;92.98
45345;BME280;31078;48.304;11.896;2023-01-28T05:34:27;96752.78;;;-1.16;92.95
45345;BME280;31078;48.304;11.896;2023-01-28T05:36:53;96754.63;;;-1.17;92.99
45345;BME280;31078;48.304;11.896;2023-01-28T05:39:20;96756.25;;;-1.16;92.83
45345;BME280;31078;48.304;11.896;2023-01-28T05:41:46;96752.78;;;-1.16;92.82
45345;BME280;31078;48.304;11.896;2023-01-28T05:44:13;96755.22;;;-1.15;92.96
45345;BME280;31078;48.304;11.896;2023-01-28T05:46:39;96763.00;;;-1.13;92.95
45345;BME280;31078;48.304;11.896;2023-01-28T05:49:10;96764.06;;;-1.14;92.85
45345;BME280;31078;48.304;11.896;2023-01-28T05:51:38;96772.06;;;-1.14;92.91
45345;BME280;31078;48.304;11.896;2023-01-28T05:54:05;96767.53;;;-1.14;92.87
45345;BME280;31078;48.304;11.896;2023-01-28T05:56:32;96768.34;;;-1.13;92.66
45345;BME280;31078;48.304;11.896;2023-01-28T05:58:59;96765.69;;;-1.13;92.60
45345;BME280;31078;48.304;11.896;2023-01-28T06:01:25;96766.25;;;-1.11;92.80
45345;BME280;31078;48.304;11.896;2023-01-28T06:03:52;96763.56;;;-1.11;92.60
45345;BME280;31078;48.304;11.896;2023-01-28T06:06:20;96767.66;;;-1.09;92.80
45345;BME280;31078;48.304;11.896;2023-01-28T06:08:46;96769.28;;;-1.08;92.69
45345;BME280;31078;48.304;11.896;2023-01-28T06:11:13;96778.09;;;-1.07;92.96
45345;BME280;31078;48.304;11.896;2023-01-28T06:13:39;96774.97;;;-1.04;93.11
45345;BME280;31078;48.304;11.896;2023-01-28T06:16:06;96774.13;;;-1.05;93.04
45345;BME280;31078;48.304;11.896;2023-01-28T06:18:33;96783.22;;;-1.06;92.96
45345;BME280;31078;48.304;11.896;2023-01-28T06:20:59;96781.34;;;-1.05;92.73
45345;BME280;31078;48.304;11.896;2023-01-28T06:23:27;96785.66;;;-1.04;92.67
45345;BME280;31078;48.304;11.896;2023-01-28T06:25:54;96783.56;;;-1.02;92.64
45345;BME280;31078;48.304;11.896;2023-01-28T06:28:21;96788.91;;;-1.02;92.48
45345;BME280;31078;48.304;11.896;2023-01-28T06:30:48;96789.38;;;-1.05;92.80
45345;BME280;31078;48.304;11.896;2023-01-28T06:33:16;96787.75;;;-1.06;92.93
45345;BME280;31078;48.304;11.896;2023-01-28T06:35:42;96789.38;;;-1.05;92.80
45345;BME280;31078;48.304;11.896;2023-01-28T06:38:09;96788.91;;;-1.02;92.59
45345;BME280;31078;48.304;11.896;2023-01-28T06:40:37;96792.28;;;-1.07;92.54
45345;BME280;31078;48.304;11.896;2023-01-28T06:43:04;96790.91;;;-1.09;92.25
45345;BME280;31078;48.304;11.896;2023-01-28T06:45:31;96804.72;;;-1.12;92.34
45345;BME280;31078;48.304;11.896;2023-01-28T06:47:57;96806.00;;;-1.15;92.40
45345;BME280;31078;48.304;11.896;2023-01-28T06:50:24;96803.91;;;-1.13;92.29
45345;BME280;31078;48.304;11.896;2023-01-28T06:52:51;96808.44;;;-1.13;92.40
45345;BME280;31078;48.304;11.896;2023-01-28T06:55:17;96809.50;;;-1.14;92.60
45345;BME280;31078;48.304;11.896;2023-01-28T06:57:45;96814.59;;;-1.13;92.82
45345;BME280;31078;48.304;11.896;2023-01-28T07:00:12;96818.66;;;-1.10;92.80
45345;BME280;31078;48.304;11.896;2023-01-28T07:02:40;96821.91;;;-1.08;92.65
45345;BME280;31078;48.304;11.896;2023-01-28T07:05:07;96825.16;;;-1.06;92.71
45345;BME280;31078;48.304;11.896;2023-01-28T07:07:33;96821.44;;;-1.05;92.70
45345;BME280;31078;48.304;11.896;2023-01-28T07:10:00;96820.97;;;-1.02;92.63
45345;BME280;31078;48.304;11.896;2023-01-28T07:12:26;96827.50;;;-0.98;92.79
45345;BME280;31078;48.304;11.896;2023-01-28T07:14:54;96828.66;;;-0.94;93.13
45345;BME280;31078;48.304;11.896;2023-01-28T07:17:20;96832.34;;;-0.95;93.17
45345;BME280;31078;48.304;11.896;2023-01-28T07:19:47;96832.16;;;-0.93;93.16
45345;BME280;31078;48.304;11.896;2023-01-28T07:22:13;96834.56;;;-0.92;93.39
45345;BME280;31078;48.304;11.896;2023-01-28T07:24:40;96836.19;;;-0.91;93.27
45345;BME280;31078;48.304;11.896;2023-01-28T07:27:06;96841.31;;;-0.89;93.28
45345;BME280;31078;48.304;11.896;2023-01-28T07:29:33;96840.03;;;-0.87;93.21
45345;BME280;31078;48.304;11.896;2023-01-28T07:32:00;96843.75;;;-0.88;93.07
45345;BME280;31078;48.304;11.896;2023-01-28T07:34:29;96842.47;;;-0.85;93.07
45345;BME280;31078;48.304;11.896;2023-01-28T07:36:55;96851.91;;;-0.83;92.97
45345;BME280;31078;48.304;11.896;2023-01-28T07:39:21;96844.91;;;-0.84;92.95
45345;BME280;31078;48.304;11.896;2023-01-28T07:41:48;96852.34;;;-0.86;93.05
45345;BME280;31078;48.304;11.896;2023-01-28T07:44:14;96852.84;;;-0.89;93.23
45345;BME280;31078;48.304;11.896;2023-01-28T07:46:41;96854.47;;;-0.88;93.01
45345;BME280;31078;48.304;11.896;2023-01-28T07:49:08;96858.28;;;-0.84;93.03
45345;BME280;31078;48.304;11.896;2023-01-28T07:51:35;96860.03;;;-0.77;92.75
45345;BME280;31078;48.304;11.896;2023-01-28T07:54:01;96860.03;;;-0.77;92.71
45345;BME280;31078;48.304;11.896;2023-01-28T07:56:29;96864.91;;;-0.74;92.77
45345;BME280;31078;48.304;11.896;2023-01-28T07:58:56;96870.38;;;-0.69;92.70
45345;BME280;31078;48.304;11.896;2023-01-28T08:01:22;96864.56;;;-0.66;92.53
45345;BME280;31078;48.304;11.896;2023-01-28T08:03:49;96868.63;;;-0.64;92.34
45345;BME280;31078;48.304;11.896;2023-01-28T08:06:16;96874.88;;;-0.58;92.07
45345;BME280;31078;48.304;11.896;2023-01-28T08:08:43;96872.91;;;-0.63;91.92
45345;BME280;31078;48.304;11.896;2023-01-28T08:11:09;96879.09;;;-0.62;92.08
45345;BME280;31078;48.304;11.896;2023-01-28T08:13:36;96869.53;;;-0.58;92.05
45345;BME280;31078;48.304;11.896;2023-01-28T08:16:03;96873.13;;;-0.53;91.95
45345;BME280;31078;48.304;11.896;2023-01-28T08:18:29;96882.81;;;-0.63;91.67
45345;BME280;31078;48.304;11.896;2023-01-28T08:20:57;96880.34;;;-0.53;91.59
45345;BME280;31078;48.304;11.896;2023-01-28T08:23:25;96888.13;;;-0.40;91.40
45345;BME280;31078;48.304;11.896;2023-01-28T08:25:52;96888.25;;;-0.35;91.25
45345;BME280;31078;48.304;11.896;2023-01-28T08:28:19;96890.78;;;-0.28;91.19
45345;BME280;31078;48.304;11.896;2023-01-28T08:30:46;96895.19;;;-0.22;90.84
45345;BME280;31078;48.304;11.896;2023-01-28T08:33:16;96887.50;;;-0.18;90.84
45345;BME280;31078;48.304;11.896;2023-01-28T08:35:43;96889.72;;;-0.15;90.57
45345;BME280;31078;48.304;11.896;2023-01-28T08:38:10;96885.28;;;-0.10;90.23
45345;BME280;31078;48.304;11.896;2023-01-28T08:40:40;96887.25;;;-0.05;89.59
45345;BME280;31078;48.304;11.896;2023-01-28T08:43:07;96888.97;;;0.01;89.54
45345;BME280;31078;48.304;11.896;2023-01-28T08:45:33;96886.88;;;0.03;89.45
45345;BME280;31078;48.304;11.896;2023-01-28T08:48:02;96888.84;;;0.08;89.32
45345;BME280;31078;48.304;11.896;2023-01-28T08:50:30;96890.81;;;0.12;89.19
45345;BME280;31078;48.304;11.896;2023-01-28T08:52:59;96897.78;;;0.13;88.75
45345;BME280;31078;48.304;11.896;2023-01-28T08:55:26;96897.53;;;0.15;88.91
45345;BME280;31078;48.304;11.896;2023-01-28T08:57:54;96909.75;;;0.22;88.80
45345;BME280;31078;48.304;11.896;2023-01-28T09:00:21;96904.28;;;0.17;88.81
45345;BME280;31078;48.304;11.896;2023-01-28T09:02:50;96910.50;;;0.06;88.14
45345;BME280;31078;48.304;11.896;2023-01-28T09:05:17;96908.03;;;0.16;88.10
45345;BME280;31078;48.304;11.896;2023-01-28T09:07:43;96910.81;;;0.21;87.91
45345;BME280;31078;48.304;11.896;2023-01-28T09:10:11;96906.00;;;0.23;87.54
45345;BME280;31078;48.304;11.896;2023-01-28T09:12:37;96913.09;;;0.30;87.75
45345;BME280;31078;48.304;11.896;2023-01-28T09:15:06;96909.13;;;0.32;87.30
45345;BME280;31078;48.304;11.896;2023-01-28T09:17:33;96910.50;;;0.35;87.24
45345;BME280;31078;48.304;11.896;2023-01-28T09:19:59;96911.22;;;0.30;87.18
45345;BME280;31078;48.304;11.896;2023-01-28T09:22:26;96911.31;;;0.35;87.07
45345;BME280;31078;48.304;11.896;2023-01-28T09:24:52;96915.22;;;0.28;87.25
45345;BME280;31078;48.304;11.896;2023-01-28T09:27:19;96906.69;;;0.31;87.14
45345;BME280;31078;48.304;11.896;2023-01-28T09:29:45;96914.78;;;0.47;86.72
45345;BME280;31078;48.304;11.896;2023-01-28T09:32:13;96913.31;;;0.57;86.43
45345;BME280;31078;48.304;11.896;2023-01-28T09:34:39;96917.88;;;0.56;86.46
45345;BME280;31078;48.304;11.896;2023-01-28T09:37:08;96908.47;;;0.54;86.46
45345;BME280;31078;48.304;11.896;2023-01-28T09:39:35;96914.69;;;0.42;86.13
45345;BME280;31078;48.304;11.896;2023-01-28T09:42:15;96909.59;;;0.58;85.94
45345;BME280;31078;48.304;11.896;2023-01-28T09:44:59;96912.41;;;0.51;85.55
45345;BME280;31078;48.304;11.896;2023-01-28T09:47:32;96908.31;;;0.60;85.37
45345;BME280;31078;48.304;11.896;2023-01-28T09:50:04;96913.22;;;0.51;86.11
45345;BME280;31078;48.304;11.896;2023-01-28T09:52:34;96910.88;;;0.55;85.99
45345;BME280;31078;48.304;11.896;2023-01-28T09:55:03;96907.16;;;0.56;85.35
45345;BME280;31078;48.304;11.896;2023-01-28T09:57:36;96909.38;;;0.59;85.77
45345;BME280;31078;48.304;11.896;2023-01-28T10:00:11;96912.13;;;0.64;86.54
45345;BME280;31078;48.304;11.896;2023-01-28T10:02:50;96908.56;;;0.75;86.66
45345;BME280;31078;48.304;11.896;2023-01-28T10:05:24;96910.78;;;0.78;86.28
45345;BME280;31078;48.304;11.896;2023-01-28T10:08:04;96912.06;;;0.93;85.82
45345;BME280;31078;48.304;11.896;2023-01-28T10:10:39;96914.63;;;1.16;85.45
45345;BME280;31078;48.304;11.896;2023-01-28T10:13:23;96908.16;;;1.34;84.71
45345;BME280;31078;48.304;11.896;2023-01-28T10:16:05;96912.25;;;1.37;84.10
45345;BME280;31078;48.304;11.896;2023-01-28T10:18:42;96907.66;;;1.54;83.29
45345;BME280;31078;48.304;11.896;2023-01-28T10:21:15;96905.53;;;1.73;82.55
45345;BME280;31078;48.304;11.896;2023-01-28T10:23:54;96912.41;;;1.47;82.33
45345;BME280;31078;48.304;11.896;2023-01-28T10:26:24;96905.19;;;1.69;82.82
45345;BME280;31078;48.304;11.896;2023-01-28T10:28:56;96903.72;;;1.78;82.20
45345;BME280;31078;48.304;11.896;2023-01-28T10:31:30;96905.22;;;1.91;81.60
45345;BME280;31078;48.304;11.896;2023-01-28T10:33:59;96899.09;;;1.96;82.84
45345;BME280;31078;48.304;11.896;2023-01-28T10:36:26;96899.16;;;2.01;82.00
45345;BME280;31078;48.304;11.896;2023-01-28T10:38:52;96897.59;;;2.05;80.75
45345;BME280;31078;48.304;11.896;2023-01-28T10:41:20;96900.47;;;2.20;79.96
45345;BME280;31078;48.304;11.896;2023-01-28T10:43:48;96905.31;;;2.23;80.01
45345;BME280;31078;48.304;11.896;2023-01-28T10:46:18;96903.97;;;2.21;79.03
45345;BME280;31078;48.304;11.896;2023-01-28T10:48:51;96897.31;;;2.28;79.37
45345;BME280;31078;48.304;11.896;2023-01-28T10:51:29;96897.22;;;2.18;78.15
45345;BME280;31078;48.304;11.896;2023-01-28T10:53:55;96898.75;;;2.09;78.81
45345;BME280;31078;48.304;11.896;2023-01-28T10:56:24;96898.28;;;2.17;77.64
45345;BME280;31078;48.304;11.896;2023-01-28T10:58:57;96906.47;;;2.27;78.07
45345;BME280;31078;48.304;11.896;2023-01-28T11:01:25;96897.97;;;2.35;77.35
45345;BME280;31078;48.304;11.896;2023-01-28T11:04:03;96895.72;;;2.54;77.54
45345;BME280;31078;48.304;11.896;2023-01-28T11:06:31;96901.09;;;2.54;76.48
45345;BME280;31078;48.304;11.896;2023-01-28T11:08:57;96898.78;;;2.36;75.65
45345;BME280;31078;48.304;11.896;2023-01-28T11:11:24;96899.69;;;2.47;75.79
45345;BME280;31078;48.304;11.896;2023-01-28T11:13:52;96895.88;;;2.43;75.45
45345;BME280;31078;48.304;11.896;2023-01-28T11:16:20;96905.38;;;2.28;75.38
45345;BME280;31078;48.304;11.896;2023-01-28T11:18:50;96903.34;;;2.35;76.11
45345;BME280;31078;48.304;11.896;2023-01-28T11:21:18;96893.69;;;2.40;77.12
45345;BME280;31078;48.304;11.896;2023-01-28T11:23:50;96897.84;;;2.25;75.97
45345;BME280;31078;48.304;11.896;2023-01-28T11:26:20;96899.06;;;2.40;75.24
45345;BME280;31078;48.304;11.896;2023-01-28T11:28:47;96896.47;;;2.50;74.96
45345;BME280;31078;48.304;11.896;2023-01-28T11:31:16;96897.91;;;2.57;74.61
45345;BME280;31078;48.304;11.896;2023-01-28T11:33:45;96894.47;;;2.62;75.15
45345;BME280;31078;48.304;11.896;2023-01-28T11:36:16;96896.31;;;2.34;73.40
45345;BME280;31078;48.304;11.896;2023-01-28T11:38:52;96901.28;;;2.21;75.10
45345;BME280;31078;48.304;11.896;2023-01-28T11:41:26;96897.09;;;2.08;75.56
45345;BME280;31078;48.304;11.896;2023-01-28T11:43:53;96896.59;;;1.89;71.51
45345;BME280;31078;48.304;11.896;2023-01-28T11:46:33;96894.22;;;1.93;73.52
45345;BME280;31078;48.304;11.896;2023-01-28T11:49:08;96890.03;;;1.80;73.79
45345;BME280;31078;48.304;11.896;2023-01-28T11:51:44;96890.50;;;1.77;75.35
45345;BME280;31078;48.304;11.896;2023-01-28T11:54:22;96891.56;;;1.54;77.14
45345;BME280;31078;48.304;11.896;2023-01-28T11:57:06;96889.97;;;1.75;76.16
45345;BME280;31078;48.304;11.896;2023-01-28T11:59:50;96880.28;;;1.74;76.44
45345;BME280;31078;48.304;11.896;2023-01-28T12:02:32;96887.63;;;1.62;77.38
45345;BME280;31078;48.304;11.896;2023-01-28T12:05:15;96888.75;;;1.66;77.54
45345;BME280;31078;48.304;11.896;2023-01-28T12:07:48;96896.03;;;1.48;77.54
45345;BME280;31078;48.304;11.896;2023-01-28T12:10:23;96892.69;;;1.58;77.28
45345;BME280;31078;48.304;11.896;2023-01-28T12:13:13;96900.53;;;1.43;76.86
45345;BME280;31078;48.304;11.896;2023-01-28T12:16:07;96899.53;;;1.49;76.64
45345;BME280;31078;48.304;11.896;2023-01-28T12:21:47;96897.84;;;1.43;77.04
45345;BME280;31078;48.304;11.896;2023-01-28T12:24:27;96895.97;;;1.43;77.47
45345;BME280;31078;48.304;11.896;2023-01-28T12:27:08;96897.94;;;1.31;78.73
45345;BME280;31078;48.304;11.896;2023-01-28T12:29:46;96894.50;;;1.36;78.77
45345;BME280;31078;48.304;11.896;2023-01-28T12:32:30;96897.78;;;1.21;78.58
45345;BME280;31078;48.304;11.896;2023-01-28T12:35:23;96897.78;;;1.04;78.97
45345;BME280;31078;48.304;11.896;2023-01-28T12:38:07;96898.09;;;0.91;79.56
45345;BME280;31078;48.304;11.896;2023-01-28T12:40:53;96899.22;;;0.78;80.55
45345;BME280;31078;48.304;11.896;2023-01-28T12:46:31;96906.72;;;0.93;80.53
45345;BME280;31078;48.304;11.896;2023-01-28T12:49:04;96898.28;;;1.01;80.89
45345;BME280;31078;48.304;11.896;2023-01-28T12:51:37;96898.19;;;1.13;80.12
45345;BME280;31078;48.304;11.896;2023-01-28T12:54:12;96901.53;;;1.03;79.79
45345;BME280;31078;48.304;11.896;2023-01-28T12:56:44;96894.63;;;1.07;78.81
45345;BME280;31078;48.304;11.896;2023-01-28T12:59:17;96892.09;;;1.00;77.23
45345;BME280;31078;48.304;11.896;2023-01-28T13:01:50;96891.13;;;0.90;78.09
45345;BME280;31078;48.304;11.896;2023-01-28T13:04:30;96898.75;;;0.98;78.96
45345;BME280;31078;48.304;11.896;2023-01-28T13:07:02;96898.91;;;1.08;78.42
45345;BME280;31078;48.304;11.896;2023-01-28T13:09:33;96900.22;;;1.22;78.07
45345;BME280;31078;48.304;11.896;2023-01-28T13:12:02;96902.00;;;1.34;77.91
45345;BME280;31078;48.304;11.896;2023-01-28T13:14:32;96901.16;;;1.50;77.55